DataTemp.
Ø
Temp.
Max
Temp.
Min
UmiditàPressionePioggiaVento
Ø
Vento
dir. Ø
Vento
Max
Indice UV
Max
05.04.2020 00:008.7°C8.7°C8.7°C42.0%1026.0hPa0.0mm4.4km/hSSE7.9km/h0uvi
05.04.2020 00:058.8°C8.8°C8.7°C42.0%1026.0hPa0.0mm6.8km/hSSW10.1km/h0uvi
05.04.2020 00:108.8°C8.8°C8.8°C42.0%1026.0hPa0.0mm5.8km/hSSW7.9km/h0uvi
05.04.2020 00:158.6°C8.7°C8.6°C42.0%1026.0hPa0.0mm3.8km/hSE7.6km/h0uvi
05.04.2020 00:208.5°C8.5°C8.5°C42.0%1026.9hPa0.0mm4.0km/hSSW6.1km/h0uvi
05.04.2020 00:258.4°C8.4°C8.4°C42.0%1027.0hPa0.0mm4.0km/hSSW6.8km/h0uvi
05.04.2020 00:308.3°C8.4°C8.3°C42.0%1027.0hPa0.0mm1.5km/hW4.0km/h0uvi
05.04.2020 00:358.3°C8.3°C8.3°C42.0%1027.0hPa0.0mm0.9km/hW3.2km/h0uvi
05.04.2020 00:408.1°C8.2°C8.0°C42.0%1027.0hPa0.0mm0.6km/hWNW4.3km/h0uvi
05.04.2020 00:457.8°C8.0°C7.7°C42.8%1027.0hPa0.0mm1.2km/hSSW3.2km/h0uvi
05.04.2020 00:507.5°C7.6°C7.5°C43.5%1027.0hPa0.0mm0.0km/hSSW1.8km/h0uvi
05.04.2020 00:557.3°C7.4°C7.3°C45.2%1027.0hPa0.0mm2.5km/hSSW4.3km/h0uvi
05.04.2020 01:007.1°C7.1°C7.0°C46.6%1027.0hPa0.0mm0.5km/hSSW2.2km/h0uvi
05.04.2020 01:057.0°C7.0°C7.0°C46.7%1027.0hPa0.0mm0.6km/hWNW3.2km/h0uvi
05.04.2020 01:107.0°C7.0°C7.0°C47.8%1027.0hPa0.0mm1.1km/hNW3.2km/h0uvi
05.04.2020 01:157.0°C7.0°C7.0°C47.0%1027.0hPa0.0mm0.2km/hWSW3.2km/h0uvi
05.04.2020 01:207.0°C7.0°C6.9°C49.3%1027.0hPa0.0mm2.4km/hSSW4.0km/h0uvi
05.04.2020 01:256.8°C6.8°C6.8°C50.3%1027.0hPa0.0mm2.2km/hSSW3.6km/h0uvi
05.04.2020 01:306.9°C6.9°C6.8°C51.0%1027.0hPa0.0mm2.0km/hSSW2.5km/h0uvi
05.04.2020 01:356.9°C6.9°C6.9°C49.8%1027.0hPa0.0mm0.3km/hSSW0.0km/h0uvi
05.04.2020 01:406.8°C6.9°C6.8°C48.7%1027.0hPa0.0mm0.0km/hSSW3.2km/h0uvi
05.04.2020 01:456.8°C6.8°C6.8°C49.0%1027.0hPa0.0mm0.6km/hNW2.5km/h0uvi
05.04.2020 01:506.8°C6.8°C6.7°C49.0%1027.0hPa0.0mm0.0km/hNW0.0km/h0uvi
05.04.2020 01:556.7°C6.7°C6.7°C48.2%1027.0hPa0.0mm0.0km/hWSW1.8km/h0uvi
05.04.2020 02:006.7°C6.7°C6.7°C48.2%1027.0hPa0.0mm0.7km/hSSW3.2km/h0uvi
05.04.2020 02:056.6°C6.6°C6.5°C49.4%1027.0hPa0.0mm0.8km/hSSW3.6km/h0uvi
05.04.2020 02:106.4°C6.5°C6.4°C49.8%1027.0hPa0.0mm1.6km/hWSW2.5km/h0uvi
05.04.2020 02:156.4°C6.4°C6.3°C50.7%1027.0hPa0.0mm1.2km/hSSW2.2km/h0uvi
05.04.2020 02:206.2°C6.2°C6.2°C51.0%1027.9hPa0.0mm0.4km/hSSW3.2km/h0uvi
05.04.2020 02:256.2°C6.3°C6.2°C51.0%1028.0hPa0.0mm1.5km/hSSW5.8km/h0uvi
05.04.2020 02:306.4°C6.4°C6.3°C51.0%1028.0hPa0.0mm2.9km/hSSW6.1km/h0uvi
05.04.2020 02:356.6°C6.7°C6.5°C51.0%1027.1hPa0.0mm5.1km/hSSW10.4km/h0uvi
05.04.2020 02:406.8°C6.8°C6.7°C49.7%1027.0hPa0.0mm4.2km/hSSW8.6km/h0uvi
05.04.2020 02:456.8°C6.8°C6.8°C49.0%1027.0hPa0.0mm1.4km/hNW3.6km/h0uvi
05.04.2020 02:506.5°C6.5°C6.4°C49.0%1027.0hPa0.0mm0.5km/hNW2.5km/h0uvi
05.04.2020 02:556.2°C6.3°C6.1°C50.8%1027.0hPa0.0mm1.9km/hSSW4.0km/h0uvi
05.04.2020 03:006.0°C6.0°C5.9°C51.8%1027.0hPa0.0mm1.8km/hSSW4.0km/h0uvi
05.04.2020 03:055.8°C5.9°C5.8°C52.0%1027.0hPa0.0mm0.0km/hNW3.6km/h0uvi
05.04.2020 03:105.8°C5.9°C5.8°C52.0%1027.0hPa0.0mm0.3km/hSSW3.2km/h0uvi
05.04.2020 03:156.0°C6.0°C6.0°C52.0%1027.0hPa0.0mm3.3km/hWSW5.0km/h0uvi
05.04.2020 03:205.8°C5.9°C5.7°C52.7%1027.0hPa0.0mm1.3km/hWNW4.0km/h0uvi
05.04.2020 03:255.6°C5.7°C5.5°C52.8%1027.0hPa0.0mm0.3km/hWNW2.5km/h0uvi
05.04.2020 03:305.4°C5.5°C5.4°C53.0%1027.0hPa0.0mm0.0km/hWSW1.4km/h0uvi
05.04.2020 03:355.3°C5.3°C5.2°C53.0%1027.0hPa0.0mm0.6km/hWSW2.5km/h0uvi
05.04.2020 03:405.1°C5.1°C5.1°C53.0%1027.0hPa0.0mm0.0km/hWSW0.0km/h0uvi
05.04.2020 03:455.0°C5.1°C5.0°C53.5%1027.0hPa0.0mm0.0km/hWSW0.0km/h0uvi
05.04.2020 03:505.0°C5.1°C5.0°C55.0%1027.0hPa0.0mm1.9km/hSSW5.8km/h0uvi
05.04.2020 03:555.2°C5.3°C5.1°C55.7%1027.0hPa0.0mm1.7km/hSSW3.6km/h0uvi
05.04.2020 04:005.3°C5.3°C5.3°C54.6%1027.0hPa0.0mm0.0km/hSSW0.0km/h0uvi
05.04.2020 04:055.3°C5.3°C5.3°C54.0%1027.0hPa0.0mm0.0km/hSSW1.4km/h0uvi
05.04.2020 04:105.2°C5.3°C5.2°C54.0%1027.0hPa0.0mm0.0km/hSSW0.0km/h0uvi
05.04.2020 04:155.1°C5.1°C5.1°C53.5%1027.0hPa0.0mm1.6km/hWSW3.2km/h0uvi
05.04.2020 04:204.9°C5.0°C4.8°C53.3%1027.0hPa0.0mm1.8km/hWSW2.5km/h0uvi
05.04.2020 04:254.7°C4.7°C4.6°C56.0%1027.0hPa0.0mm2.2km/hSSW4.3km/h0uvi
05.04.2020 04:304.5°C4.5°C4.5°C57.7%1027.0hPa0.0mm0.9km/hWSW3.2km/h0uvi
05.04.2020 04:354.5°C4.5°C4.4°C57.0%1027.0hPa0.0mm1.0km/hWSW3.2km/h0uvi
05.04.2020 04:404.3°C4.4°C4.3°C57.4%1027.0hPa0.0mm1.7km/hWSW5.0km/h0uvi
05.04.2020 04:454.2°C4.3°C4.1°C60.7%1027.0hPa0.0mm3.6km/hSSW4.7km/h0uvi
05.04.2020 04:504.0°C4.1°C4.0°C59.2%1027.0hPa0.0mm1.0km/hNW2.5km/h0uvi
05.04.2020 04:554.0°C4.0°C3.9°C59.0%1027.0hPa0.0mm1.6km/hWSW4.7km/h0uvi
05.04.2020 05:003.9°C3.9°C3.8°C59.0%1027.0hPa0.0mm0.0km/hWSW2.2km/h0uvi
05.04.2020 05:053.8°C3.8°C3.8°C59.0%1027.0hPa0.0mm1.6km/hWSW2.5km/h0uvi
05.04.2020 05:103.6°C3.7°C3.6°C62.0%1027.0hPa0.0mm2.2km/hSSW4.0km/h0uvi
05.04.2020 05:153.5°C3.6°C3.5°C61.8%1027.0hPa0.0mm0.6km/hNW2.5km/h0uvi
05.04.2020 05:203.5°C3.6°C3.5°C62.8%1027.0hPa0.0mm1.2km/hNW2.2km/h0uvi
05.04.2020 05:253.6°C3.6°C3.5°C63.0%1027.0hPa0.0mm0.2km/hWNW2.5km/h0uvi
05.04.2020 05:303.6°C3.6°C3.6°C63.0%1027.0hPa0.0mm0.8km/hWSW2.5km/h0uvi
05.04.2020 05:353.6°C3.6°C3.5°C63.0%1027.9hPa0.0mm1.0km/hWSW3.2km/h0uvi
05.04.2020 05:403.5°C3.5°C3.4°C63.5%1028.0hPa0.0mm1.2km/hSSW2.5km/h0uvi
05.04.2020 05:453.4°C3.4°C3.4°C63.0%1028.0hPa0.0mm0.0km/hWSW0.0km/h0uvi
05.04.2020 05:503.4°C3.4°C3.4°C62.8%1028.0hPa0.0mm0.0km/hWSW1.8km/h0uvi
05.04.2020 05:553.4°C3.4°C3.4°C62.0%1028.0hPa0.0mm0.0km/hWSW1.4km/h0uvi
05.04.2020 06:003.3°C3.4°C3.3°C62.0%1028.0hPa0.0mm0.1km/hWSW3.2km/h0uvi
05.04.2020 06:053.1°C3.2°C3.1°C62.0%1028.0hPa0.0mm0.8km/hWSW2.5km/h0uvi
05.04.2020 06:103.1°C3.1°C3.0°C62.7%1028.0hPa0.0mm2.1km/hWSW4.7km/h0uvi
05.04.2020 06:153.0°C3.0°C3.0°C64.0%1028.0hPa0.0mm0.5km/hWSW1.8km/h0uvi
05.04.2020 06:203.0°C3.0°C3.0°C64.2%1028.0hPa0.0mm1.1km/hWSW3.2km/h0uvi
05.04.2020 06:253.0°C3.1°C3.0°C65.2%1028.0hPa0.0mm0.7km/hWSW3.2km/h0uvi
05.04.2020 06:303.1°C3.1°C3.1°C68.0%1028.0hPa0.0mm2.1km/hSSW3.6km/h0uvi
05.04.2020 06:353.1°C3.1°C3.0°C67.3%1028.0hPa0.0mm0.3km/hWSW0.0km/h0uvi
05.04.2020 06:403.0°C3.1°C3.0°C66.2%1028.0hPa0.0mm0.8km/hWSW2.5km/h0uvi
05.04.2020 06:453.0°C3.0°C3.0°C67.0%1028.0hPa0.0mm1.0km/hSSW2.5km/h0uvi
05.04.2020 06:503.0°C3.0°C2.9°C68.3%1028.0hPa0.0mm2.0km/hSSW3.2km/h0uvi
05.04.2020 06:552.9°C2.9°C2.9°C68.6%1028.0hPa0.0mm0.2km/hSSW1.8km/h0uvi
05.04.2020 07:002.9°C2.9°C2.8°C67.8%1028.0hPa0.0mm0.0km/hSSW1.4km/h0uvi
05.04.2020 07:052.8°C2.8°C2.8°C67.0%1028.0hPa0.0mm0.6km/hSW2.5km/h0uvi
05.04.2020 07:102.8°C2.8°C2.8°C67.2%1028.0hPa0.0mm1.8km/hSSW3.2km/h0uvi
05.04.2020 07:152.8°C2.8°C2.8°C68.3%1028.0hPa0.0mm1.0km/hESE3.2km/h0uvi
05.04.2020 07:202.9°C2.9°C2.8°C67.8%1028.0hPa0.0mm0.0km/hWNW0.0km/h0uvi
05.04.2020 07:252.9°C2.9°C2.9°C67.0%1028.0hPa0.0mm0.0km/hWNW0.0km/h0uvi
05.04.2020 07:303.0°C3.0°C3.0°C67.0%1028.0hPa0.0mm0.3km/hW2.5km/h0uvi
05.04.2020 07:353.1°C3.1°C3.0°C67.0%1028.0hPa0.0mm0.4km/hW1.8km/h0uvi
05.04.2020 07:403.1°C3.1°C3.1°C67.5%1028.0hPa0.0mm0.7km/hNW2.2km/h0uvi
05.04.2020 07:453.1°C3.1°C3.1°C68.8%1028.0hPa0.0mm1.5km/hNW2.2km/h0uvi
05.04.2020 07:503.2°C3.2°C3.1°C68.7%1028.0hPa0.0mm0.0km/hWNW0.0km/h0uvi
05.04.2020 07:553.3°C3.3°C3.3°C68.0%1028.0hPa0.0mm0.0km/hSSW0.0km/h0uvi
05.04.2020 08:003.4°C3.4°C3.4°C68.0%1028.0hPa0.0mm0.0km/hWNW1.4km/h0uvi
05.04.2020 08:053.6°C3.6°C3.5°C68.0%1028.0hPa0.0mm0.7km/hWSW3.2km/h0uvi
05.04.2020 08:103.7°C3.7°C3.7°C68.2%1028.0hPa0.0mm0.1km/hWNW1.4km/h0uvi
05.04.2020 08:153.7°C3.8°C3.7°C68.6%1028.0hPa0.0mm0.0km/hNW2.5km/h0uvi
05.04.2020 08:203.9°C4.0°C3.8°C68.0%1028.9hPa0.0mm0.2km/hNW2.2km/h0uvi
05.04.2020 08:254.0°C4.0°C4.0°C68.0%1029.0hPa1.0km/hNE2.5km/h0uvi
05.04.2020 08:304.2°C4.2°C4.1°C68.7%1029.0hPa0.0mm0.9km/hNW3.2km/h0uvi
05.04.2020 08:354.5°C4.5°C4.4°C69.0%1029.0hPa0.0mm0.6km/hNW2.5km/h0uvi
05.04.2020 08:404.6°C4.7°C4.6°C68.4%1029.0hPa0.0mm1.6km/hNW4.3km/h0uvi
05.04.2020 08:454.8°C4.9°C4.8°C68.0%1029.0hPa0.0mm0.8km/hNW4.0km/h0uvi
05.04.2020 08:505.2°C5.3°C5.1°C67.0%1029.0hPa0.0mm0.7km/hNW3.2km/h0uvi
05.04.2020 08:555.4°C5.5°C5.3°C66.0%1029.0hPa0.0mm0.8km/hNW3.2km/h0uvi
05.04.2020 09:005.7°C5.8°C5.6°C65.3%1029.0hPa0.0mm0.2km/hNW1.8km/h0uvi
05.04.2020 09:055.9°C6.0°C5.8°C64.0%1029.0hPa0.0mm0.8km/hWSW4.3km/h0uvi
05.04.2020 09:106.2°C6.3°C6.1°C62.0%1029.0hPa0.0mm1.9km/hNW4.0km/h0uvi
05.04.2020 09:156.4°C6.5°C6.4°C59.5%1029.0hPa0.0mm1.6km/hNW4.0km/h0uvi
05.04.2020 09:206.8°C6.8°C6.8°C59.0%1029.0hPa0.0mm0.0km/hW2.2km/h0uvi
05.04.2020 09:257.0°C7.1°C7.0°C58.0%1029.0hPa0.0mm0.0km/hW0.0km/h0uvi
05.04.2020 09:307.3°C7.4°C7.2°C56.3%1029.0hPa0.0mm1.4km/hWSW3.6km/h0uvi
05.04.2020 09:357.5°C7.5°C7.4°C54.2%1029.0hPa0.0mm1.0km/hESE3.6km/h0uvi
05.04.2020 09:407.7°C7.8°C7.6°C53.8%1029.0hPa0.0mm0.8km/hWSW3.6km/h0uvi
05.04.2020 09:457.8°C7.9°C7.8°C51.2%1029.0hPa0.0mm1.0km/hSSW3.2km/h2uvi
05.04.2020 09:508.1°C8.2°C8.0°C50.0%1029.0hPa0.0mm2.0km/hSE4.0km/h2uvi
05.04.2020 09:558.4°C8.5°C8.3°C49.6%1029.0hPa0.0mm2.1km/hSE4.0km/h2uvi
05.04.2020 10:008.5°C8.6°C8.5°C48.6%1029.0hPa0.0mm1.7km/hSSE3.2km/h2uvi
05.04.2020 10:058.8°C8.8°C8.8°C47.0%1029.0hPa0.0mm1.2km/hNW3.2km/h3uvi
05.04.2020 10:109.5°C9.9°C9.2°C42.6%1029.0hPa0.0mm0.3km/hENE4.0km/h3uvi
05.04.2020 10:1510.1°C10.3°C9.9°C42.3%1029.0hPa0.0mm1.6km/hS4.0km/h3uvi
05.04.2020 10:2010.6°C10.8°C10.4°C42.0%1029.0hPa0.0mm1.4km/hSSE5.4km/h3uvi
05.04.2020 10:2511.0°C11.1°C10.8°C40.3%1029.0hPa0.0mm2.4km/hSSE4.0km/h3uvi
05.04.2020 10:3010.8°C10.9°C10.6°C39.6%1029.0hPa0.0mm0.9km/hNE4.7km/h4uvi
05.04.2020 10:3510.6°C10.7°C10.5°C40.3%1029.0hPa0.0mm2.1km/hNE3.6km/h4uvi
05.04.2020 10:4010.9°C11.1°C10.8°C40.0%1029.0hPa0.0mm1.0km/hNW4.3km/h4uvi
05.04.2020 10:4511.2°C11.4°C11.1°C36.5%1029.0hPa0.0mm2.3km/hNE5.8km/h4uvi
05.04.2020 10:5011.4°C11.6°C11.3°C36.2%1028.1hPa0.0mm2.6km/hSSE6.1km/h4uvi
05.04.2020 10:5511.8°C11.9°C11.7°C34.2%1028.0hPa0.0mm2.7km/hENE5.4km/h4uvi
05.04.2020 11:0011.8°C12.0°C11.7°C34.2%1028.0hPa0.0mm3.0km/hNE5.8km/h4uvi
05.04.2020 11:0512.0°C12.1°C11.9°C33.8%1028.0hPa0.0mm1.9km/hENE5.0km/h5uvi
05.04.2020 11:1012.4°C12.9°C12.0°C33.4%1028.0hPa0.0mm1.7km/hENE5.0km/h5uvi
05.04.2020 11:1512.9°C13.1°C12.6°C33.0%1028.0hPa0.0mm1.9km/hNE7.9km/h5uvi
05.04.2020 11:2012.8°C13.2°C12.6°C34.0%1028.0hPa0.0mm3.4km/hNE5.8km/h5uvi
05.04.2020 11:2513.4°C13.4°C13.3°C32.7%1028.0hPa0.0mm3.4km/hSSE5.4km/h5uvi
05.04.2020 11:3013.6°C13.7°C13.3°C32.2%1028.0hPa0.0mm2.1km/hSSE5.0km/h5uvi
05.04.2020 11:3513.6°C13.8°C13.4°C31.5%1028.0hPa0.0mm3.0km/hNE5.8km/h5uvi
05.04.2020 11:4013.8°C14.0°C13.6°C31.6%1028.0hPa0.0mm4.1km/hSSE6.1km/h6uvi
05.04.2020 11:4514.2°C14.5°C13.8°C31.3%1028.0hPa0.0mm2.5km/hSSE4.7km/h6uvi
05.04.2020 11:5014.5°C14.5°C14.4°C30.7%1027.1hPa0.0mm1.4km/hNE4.3km/h6uvi
05.04.2020 11:5514.1°C14.3°C14.0°C30.5%1027.0hPa0.0mm3.0km/hNE6.1km/h6uvi
05.04.2020 12:0014.6°C14.7°C14.4°C30.4%1027.0hPa0.0mm3.1km/hSSE5.0km/h6uvi
05.04.2020 12:0514.6°C14.7°C14.5°C30.0%1027.9hPa0.0mm2.4km/hSSE6.8km/h6uvi
05.04.2020 12:1014.8°C15.1°C14.5°C29.8%1028.0hPa0.0mm2.4km/hNW4.0km/h6uvi
05.04.2020 12:1514.8°C15.0°C14.5°C29.8%1028.0hPa0.0mm3.0km/hNE5.8km/h6uvi
05.04.2020 12:2015.2°C15.6°C14.9°C29.8%1028.0hPa0.0mm2.1km/hSSW4.3km/h6uvi
05.04.2020 12:2515.7°C15.8°C15.6°C29.8%1028.0hPa0.0mm2.8km/hNE7.2km/h7uvi
05.04.2020 12:3015.7°C16.0°C15.4°C29.0%1028.0hPa0.0mm2.9km/hNE6.8km/h7uvi
05.04.2020 12:3515.1°C15.2°C14.9°C29.0%1028.0hPa0.0mm4.4km/hNW6.5km/h7uvi
05.04.2020 12:4015.4°C15.8°C15.1°C29.0%1028.0hPa0.0mm1.9km/hNW4.3km/h7uvi
05.04.2020 12:4515.4°C15.5°C15.3°C29.0%1028.0hPa0.0mm3.8km/hNE6.8km/h7uvi
05.04.2020 12:5015.7°C15.8°C15.6°C29.0%1027.1hPa0.0mm3.9km/hNE7.6km/h6uvi
05.04.2020 12:5516.1°C16.3°C15.9°C28.7%1027.0hPa0.0mm3.2km/hSSE5.8km/h7uvi
05.04.2020 13:0016.1°C16.2°C16.0°C28.0%1027.0hPa0.0mm2.8km/hSE5.8km/h7uvi
05.04.2020 13:0516.3°C16.5°C16.2°C28.2%1027.0hPa0.0mm3.6km/hSSE6.1km/h7uvi
05.04.2020 13:1016.4°C16.5°C16.3°C28.0%1027.0hPa0.0mm3.9km/hNE7.6km/h7uvi
05.04.2020 13:1516.2°C16.5°C16.1°C28.0%1027.0hPa0.0mm3.3km/hNE6.5km/h7uvi
05.04.2020 13:2016.6°C16.7°C16.4°C28.0%1027.0hPa0.0mm3.2km/hNE5.8km/h7uvi
05.04.2020 13:2516.2°C16.3°C16.1°C28.0%1027.0hPa0.0mm5.3km/hNE9.7km/h7uvi
05.04.2020 13:3016.4°C16.5°C16.1°C28.0%1027.0hPa0.0mm2.8km/hNE5.4km/h7uvi
05.04.2020 13:3516.8°C16.9°C16.6°C28.0%1027.0hPa0.0mm2.1km/hNE6.1km/h7uvi
05.04.2020 13:4017.2°C17.3°C17.0°C28.0%1027.0hPa0.0mm2.4km/hSSE6.8km/h7uvi
05.04.2020 13:4517.6°C17.8°C17.5°C27.5%1027.0hPa0.0mm3.7km/hSSE6.5km/h7uvi
05.04.2020 13:5017.7°C17.8°C17.6°C26.6%1026.1hPa0.0mm3.9km/hNE10.4km/h7uvi
05.04.2020 13:5517.8°C17.9°C17.7°C27.2%1026.0hPa0.0mm4.8km/hNE6.8km/h7uvi
05.04.2020 14:0017.8°C17.9°C17.8°C27.2%1026.0hPa0.0mm4.3km/hSSE7.9km/h6uvi
05.04.2020 14:0518.1°C18.2°C18.0°C26.3%1026.0hPa0.0mm3.8km/hENE9.0km/h6uvi
05.04.2020 14:1018.3°C18.4°C18.2°C26.2%1026.0hPa0.0mm3.3km/hNE6.1km/h6uvi
05.04.2020 14:1518.5°C18.6°C18.4°C25.0%1026.0hPa0.0mm2.6km/hSSE9.7km/h6uvi
05.04.2020 14:2018.6°C18.6°C18.4°C25.0%1025.1hPa0.0mm5.2km/hNE9.4km/h6uvi
05.04.2020 14:2518.2°C18.4°C18.1°C25.3%1025.0hPa0.0mm4.1km/hNE9.4km/h6uvi
05.04.2020 14:3018.2°C18.3°C18.2°C23.0%1025.0hPa0.0mm5.3km/hNE9.7km/h6uvi
05.04.2020 14:3518.9°C19.1°C18.7°C22.8%1026.0hPa0.0mm1.9km/hNE6.8km/h6uvi
05.04.2020 14:4019.0°C19.2°C18.9°C22.2%1026.0hPa0.0mm6.8km/hNE11.9km/h6uvi
05.04.2020 14:4519.4°C19.5°C19.3°C22.0%1026.0hPa0.0mm2.9km/hSSE5.4km/h5uvi
05.04.2020 14:5019.4°C19.5°C19.4°C21.3%1027.0hPa0.0mm5.1km/hNE9.0km/h5uvi
05.04.2020 14:5519.4°C19.4°C19.2°C20.5%1027.0hPa0.0mm5.4km/hNW7.6km/h5uvi
05.04.2020 15:0019.5°C19.6°C19.5°C20.0%1027.0hPa0.0mm5.3km/hSSE9.7km/h5uvi
05.04.2020 15:0519.9°C20.0°C19.7°C20.0%1026.1hPa0.0mm4.3km/hSSE9.7km/h5uvi
05.04.2020 15:1020.1°C20.2°C20.0°C20.0%1026.0hPa0.0mm4.2km/hNE11.5km/h5uvi
05.04.2020 15:1520.1°C20.1°C20.0°C20.0%1026.0hPa0.0mm5.5km/hNE10.1km/h5uvi
05.04.2020 15:2020.1°C20.2°C20.1°C20.0%1025.1hPa0.0mm5.3km/hNE11.5km/h5uvi
05.04.2020 15:2520.1°C20.1°C20.0°C20.0%1025.0hPa0.0mm7.0km/hNE13.0km/h5uvi
05.04.2020 15:3019.9°C19.9°C19.8°C20.0%1025.0hPa0.0mm8.1km/hNE14.8km/h4uvi
05.04.2020 15:3520.0°C20.0°C19.9°C20.0%1025.9hPa0.0mm5.4km/hSE12.2km/h4uvi
05.04.2020 15:4020.1°C20.2°C20.0°C20.0%1026.0hPa0.0mm5.6km/hSSW9.7km/h4uvi
05.04.2020 15:4520.1°C20.2°C20.1°C20.0%1026.0hPa0.0mm5.3km/hNE13.7km/h4uvi
05.04.2020 15:5020.1°C20.1°C20.0°C20.0%1025.3hPa0.0mm7.1km/hENE12.2km/h4uvi
05.04.2020 15:5520.2°C20.3°C20.1°C20.0%1025.0hPa0.0mm4.7km/hNE7.6km/h4uvi
05.04.2020 16:0020.2°C20.3°C20.1°C20.0%1025.0hPa0.0mm4.9km/hNE9.0km/h4uvi
05.04.2020 16:0520.2°C20.3°C20.1°C20.0%1024.3hPa0.0mm4.9km/hENE9.0km/h4uvi
05.04.2020 16:1020.3°C20.3°C20.2°C20.0%1024.0hPa0.0mm5.7km/hNE10.4km/h3uvi
05.04.2020 16:1520.4°C20.5°C20.2°C20.0%1024.0hPa0.0mm5.4km/hSSE12.2km/h3uvi
05.04.2020 16:2020.3°C20.4°C20.2°C20.0%1024.0hPa0.0mm4.3km/hNE9.0km/h3uvi
05.04.2020 16:2520.4°C20.5°C20.3°C20.0%1024.0hPa0.0mm4.4km/hWSW9.0km/h3uvi
05.04.2020 16:3020.3°C20.3°C20.3°C20.0%1024.0hPa0.0mm5.8km/hSSE10.4km/h3uvi
05.04.2020 16:3520.2°C20.2°C20.2°C20.0%1024.0hPa0.0mm6.0km/hNE12.6km/h3uvi
05.04.2020 16:4020.3°C20.3°C20.3°C20.0%1024.0hPa0.0mm4.3km/hNE12.6km/h2uvi
05.04.2020 16:4520.2°C20.3°C20.2°C20.0%1024.0hPa0.0mm4.8km/hNW15.1km/h2uvi
05.04.2020 16:5020.4°C20.7°C20.3°C20.0%1024.0hPa0.0mm4.6km/hSSE9.4km/h2uvi
05.04.2020 16:5520.2°C20.3°C20.1°C20.0%1024.0hPa0.0mm4.8km/hNE7.6km/h2uvi
05.04.2020 17:0020.2°C20.3°C20.2°C20.0%1024.0hPa0.0mm4.2km/hNE7.6km/h2uvi
05.04.2020 17:0520.1°C20.2°C20.0°C20.0%1024.0hPa0.0mm4.8km/hWSW10.1km/h1uvi
05.04.2020 17:1019.9°C20.0°C19.8°C20.0%1024.0hPa0.0mm5.2km/hNE8.6km/h1uvi
05.04.2020 17:1519.9°C20.1°C19.8°C20.0%1024.0hPa0.0mm4.7km/hENE11.5km/h1uvi
05.04.2020 17:2019.7°C19.8°C19.7°C20.0%1024.0hPa0.0mm5.8km/hENE9.7km/h1uvi
05.04.2020 17:2519.9°C19.9°C19.8°C20.0%1024.0hPa0.0mm3.8km/hNE7.9km/h1uvi
05.04.2020 17:3019.8°C19.8°C19.8°C20.0%1024.0hPa0.0mm4.8km/hWNW11.9km/h1uvi
05.04.2020 17:3519.8°C19.8°C19.7°C20.0%1024.0hPa0.0mm4.5km/hSSW7.2km/h1uvi
05.04.2020 17:4019.6°C19.7°C19.6°C20.0%1024.0hPa0.0mm5.2km/hENE13.7km/h1uvi
05.04.2020 17:4519.5°C19.5°C19.4°C20.0%1024.0hPa0.0mm5.1km/hNE9.7km/h0uvi
05.04.2020 17:5019.4°C19.5°C19.3°C20.0%1024.0hPa0.0mm5.0km/hNE9.7km/h0uvi
05.04.2020 17:5519.3°C19.3°C19.3°C20.0%1024.0hPa0.0mm5.0km/hNE11.5km/h0uvi
05.04.2020 18:0019.3°C19.3°C19.2°C20.0%1024.0hPa0.0mm4.6km/hENE12.2km/h0uvi
05.04.2020 18:0519.2°C19.2°C19.1°C20.0%1024.0hPa0.0mm5.3km/hNE10.4km/h0uvi
05.04.2020 18:1019.1°C19.1°C19.0°C20.0%1024.0hPa0.0mm4.4km/hNE9.4km/h0uvi
05.04.2020 18:1518.9°C19.0°C18.9°C20.0%1024.0hPa0.0mm4.9km/hNE10.4km/h0uvi
05.04.2020 18:2018.9°C19.0°C18.9°C20.0%1024.0hPa0.0mm4.7km/hNE12.2km/h0uvi
05.04.2020 18:2518.8°C18.8°C18.8°C20.0%1024.0hPa0.0mm4.8km/hNE8.6km/h0uvi
05.04.2020 18:3018.7°C18.8°C18.7°C20.0%1024.0hPa0.0mm6.4km/hENE10.1km/h0uvi
05.04.2020 18:3518.7°C18.7°C18.7°C20.0%1024.0hPa0.0mm5.9km/hENE10.1km/h0uvi
05.04.2020 18:4018.6°C18.6°C18.6°C20.0%1024.0hPa0.0mm5.1km/hNE7.6km/h0uvi
05.04.2020 18:4518.5°C18.5°C18.4°C20.0%1024.0hPa0.0mm3.9km/hNE6.5km/h0uvi
05.04.2020 18:5018.3°C18.4°C18.2°C20.0%1024.0hPa0.0mm3.2km/hNW5.4km/h0uvi
05.04.2020 18:5518.1°C18.2°C18.0°C20.0%1024.0hPa0.0mm3.3km/hNE6.5km/h0uvi
05.04.2020 19:0017.9°C18.0°C17.8°C20.8%1024.0hPa0.0mm4.5km/hNE8.6km/h0uvi
05.04.2020 19:0517.7°C17.8°C17.6°C21.0%1024.0hPa0.0mm3.8km/hNE6.1km/h0uvi
05.04.2020 19:1017.4°C17.5°C17.3°C21.0%1024.0hPa0.0mm5.2km/hNE8.6km/h0uvi
05.04.2020 19:1517.2°C17.3°C17.1°C21.0%1024.0hPa0.0mm4.6km/hNE6.8km/h0uvi
05.04.2020 19:2016.9°C17.0°C16.9°C21.0%1024.9hPa0.0mm4.0km/hNE5.4km/h0uvi
05.04.2020 19:2516.8°C16.9°C16.8°C21.0%1025.0hPa0.0mm4.6km/hNE6.5km/h0uvi
05.04.2020 19:3016.6°C16.8°C16.5°C21.0%1025.0hPa0.0mm3.8km/hNE5.8km/h0uvi
05.04.2020 19:3516.4°C16.5°C16.3°C21.0%1025.0hPa0.0mm1.5km/hNE5.0km/h0uvi
05.04.2020 19:4016.2°C16.4°C15.9°C21.0%1025.0hPa0.0mm1.4km/hSSW6.5km/h0uvi
05.04.2020 19:4516.0°C16.2°C15.8°C21.5%1025.0hPa0.0mm3.2km/hSSE6.8km/h0uvi
05.04.2020 19:5015.3°C15.4°C15.1°C22.0%1025.0hPa0.0mm3.4km/hSSW6.8km/h0uvi
05.04.2020 19:5515.0°C15.2°C14.7°C22.0%1025.0hPa0.0mm4.1km/hSSW10.1km/h0uvi
05.04.2020 20:0014.7°C14.9°C14.4°C22.0%1025.0hPa0.0mm4.9km/hSSW9.4km/h0uvi
05.04.2020 20:0514.4°C14.6°C14.0°C22.0%1025.3hPa0.0mm5.7km/hSSW10.1km/h0uvi
05.04.2020 20:1013.9°C14.2°C13.7°C22.5%1026.0hPa0.0mm6.0km/hSSE11.2km/h0uvi
05.04.2020 20:1513.7°C13.9°C13.5°C24.1%1026.0hPa0.0mm6.6km/hSSE11.2km/h0uvi
05.04.2020 20:2013.5°C13.6°C13.5°C25.0%1026.0hPa0.0mm5.3km/hSSW10.1km/h0uvi
05.04.2020 20:2513.5°C13.6°C13.4°C25.0%1026.0hPa0.0mm6.0km/hSSE10.1km/h0uvi
05.04.2020 20:3013.4°C13.5°C13.3°C25.0%1026.0hPa0.0mm6.4km/hSSW10.1km/h0uvi
05.04.2020 20:3513.2°C13.3°C13.1°C25.0%1025.7hPa0.0mm7.0km/hSSW11.2km/h0uvi
05.04.2020 20:4013.2°C13.2°C13.1°C25.0%1025.0hPa0.0mm6.0km/hSSE13.0km/h0uvi
05.04.2020 20:4513.1°C13.2°C13.0°C25.0%1025.0hPa0.0mm7.0km/hSSW10.4km/h0uvi
05.04.2020 20:5013.0°C13.0°C12.9°C25.0%1025.0hPa0.0mm6.2km/hSSW7.9km/h0uvi
05.04.2020 20:5512.8°C12.9°C12.7°C25.0%1025.0hPa0.0mm5.2km/hSSW9.0km/h0uvi
05.04.2020 21:0012.5°C12.5°C12.5°C25.0%1025.0hPa0.0mm7.3km/hSSW10.4km/h0uvi
05.04.2020 21:0512.5°C12.5°C12.4°C25.0%1025.6hPa0.0mm5.7km/hSSW11.9km/h0uvi
05.04.2020 21:1012.3°C12.3°C12.3°C25.0%1026.0hPa0.0mm7.2km/hSSW10.1km/h0uvi
05.04.2020 21:1512.3°C12.4°C12.2°C25.0%1026.0hPa0.0mm6.1km/hSSW10.4km/h0uvi
05.04.2020 21:2012.2°C12.3°C12.0°C25.0%1026.9hPa0.0mm6.9km/hSSW9.4km/h0uvi
05.04.2020 21:2511.8°C11.9°C11.7°C25.7%1027.0hPa0.0mm6.6km/hSSW9.0km/h0uvi
05.04.2020 21:3011.6°C11.7°C11.6°C27.0%1027.0hPa0.0mm6.0km/hSSW10.4km/h0uvi
05.04.2020 21:3511.4°C11.5°C11.4°C27.0%1027.0hPa0.0mm5.1km/hSSE6.5km/h0uvi
05.04.2020 21:4011.2°C11.3°C11.1°C27.0%1027.0hPa0.0mm5.1km/hSSE10.4km/h0uvi
05.04.2020 21:4511.0°C11.1°C10.9°C27.2%1027.0hPa0.0mm5.0km/hSSE9.4km/h0uvi
05.04.2020 21:5010.9°C11.0°C10.9°C27.8%1027.0hPa0.0mm6.8km/hSSE12.6km/h0uvi
05.04.2020 21:5511.2°C11.2°C11.1°C27.0%1027.0hPa0.0mm8.0km/hSSW9.7km/h0uvi
05.04.2020 22:0011.3°C11.3°C11.2°C27.0%1027.0hPa0.0mm7.0km/hSSW9.0km/h0uvi
05.04.2020 22:0511.1°C11.1°C11.1°C27.0%1027.8hPa0.0mm4.8km/hSSW7.9km/h0uvi
05.04.2020 22:1011.0°C11.1°C10.9°C27.5%1028.0hPa0.0mm5.1km/hSE6.8km/h0uvi
05.04.2020 22:1510.8°C10.9°C10.8°C28.0%1028.0hPa0.0mm6.4km/hSSW12.2km/h0uvi
05.04.2020 22:2010.8°C10.8°C10.8°C28.0%1028.0hPa0.0mm7.8km/hSSW13.0km/h0uvi
05.04.2020 22:2510.8°C10.9°C10.8°C28.0%1028.0hPa0.0mm7.8km/hSSW14.4km/h0uvi
05.04.2020 22:3010.7°C10.8°C10.7°C28.0%1028.0hPa0.0mm3.3km/hSSW9.7km/h0uvi
05.04.2020 22:3510.6°C10.7°C10.5°C30.0%1028.0hPa0.0mm6.2km/hSSW10.1km/h0uvi
05.04.2020 22:4010.4°C10.5°C10.4°C30.0%1028.0hPa0.0mm5.6km/hSSW9.7km/h0uvi
05.04.2020 22:4510.4°C10.4°C10.4°C30.0%1028.0hPa0.0mm6.1km/hSSW10.1km/h0uvi
05.04.2020 22:5010.3°C10.4°C10.3°C30.0%1028.0hPa0.0mm5.6km/hSSW10.1km/h0uvi
05.04.2020 22:5510.3°C10.3°C10.3°C30.0%1028.0hPa0.0mm6.5km/hSSW9.4km/h0uvi
05.04.2020 23:0010.2°C10.3°C10.2°C30.0%1028.0hPa0.0mm7.0km/hSSW11.5km/h0uvi
05.04.2020 23:0510.1°C10.1°C10.1°C30.0%1028.0hPa0.0mm6.5km/hSSW10.4km/h0uvi
05.04.2020 23:1010.0°C10.1°C10.0°C30.0%1028.0hPa0.0mm5.9km/hSSW9.7km/h0uvi
05.04.2020 23:159.9°C9.9°C9.9°C30.0%1028.0hPa0.0mm5.1km/hSSW9.7km/h0uvi
05.04.2020 23:2010.0°C10.0°C9.9°C30.0%1027.3hPa0.0mm5.5km/hSSW10.4km/h0uvi
05.04.2020 23:2510.0°C10.0°C9.9°C30.3%1027.0hPa0.0mm2.1km/hWSW4.7km/h0uvi
05.04.2020 23:309.8°C9.9°C9.8°C31.0%1027.0hPa0.0mm3.6km/hSSW7.6km/h0uvi
05.04.2020 23:359.7°C9.7°C9.7°C31.0%1027.0hPa0.0mm4.7km/hSSW7.9km/h0uvi
05.04.2020 23:409.6°C9.6°C9.5°C31.0%1027.0hPa0.0mm4.1km/hSSW6.5km/h0uvi
05.04.2020 23:459.5°C9.5°C9.5°C31.0%1027.0hPa0.0mm5.8km/hSSW10.4km/h0uvi
05.04.2020 23:509.5°C9.5°C9.5°C31.0%1027.9hPa0.0mm6.9km/hSSW9.7km/h0uvi
05.04.2020 23:559.5°C9.5°C9.5°C31.0%1028.0hPa0.0mm7.1km/hSSW9.7km/h0uvi
06.04.2020 00:009.5°C9.5°C9.5°C31.0%1028.0hPa0.0mm5.8km/hSSW11.5km/h0uvi
06.04.2020 00:059.4°C9.5°C9.4°C31.0%1028.0hPa0.0mm6.1km/hS12.2km/h0uvi
06.04.2020 00:109.4°C9.4°C9.4°C31.0%1028.0hPa0.0mm5.2km/hSSE8.6km/h0uvi
06.04.2020 00:159.5°C9.5°C9.4°C31.0%1028.0hPa0.0mm5.3km/hSSW10.1km/h0uvi
06.04.2020 00:209.5°C9.5°C9.4°C31.0%1028.0hPa0.0mm3.5km/hSSW5.4km/h0uvi
06.04.2020 00:259.3°C9.3°C9.2°C31.0%1028.0hPa0.0mm3.4km/hSE5.4km/h0uvi
06.04.2020 00:309.2°C9.2°C9.2°C31.0%1028.0hPa0.0mm3.7km/hSSE5.8km/h0uvi
06.04.2020 00:359.0°C9.0°C9.0°C31.0%1028.0hPa0.0mm4.6km/hSSE9.7km/h0uvi
06.04.2020 00:409.1°C9.1°C9.0°C31.8%1028.0hPa0.0mm5.2km/hSSW10.1km/h0uvi
06.04.2020 00:459.1°C9.1°C9.0°C32.0%1028.0hPa0.0mm4.9km/hSSW10.8km/h0uvi
06.04.2020 00:508.9°C9.0°C8.8°C32.0%1028.0hPa0.0mm3.9km/hSSW5.0km/h0uvi
06.04.2020 00:558.7°C8.7°C8.6°C32.0%1028.0hPa0.0mm2.6km/hSSW5.4km/h0uvi
06.04.2020 01:008.6°C8.6°C8.6°C32.5%1028.0hPa0.0mm2.2km/hSSW5.0km/h0uvi
06.04.2020 01:058.5°C8.5°C8.4°C32.5%1028.0hPa0.0mm1.4km/hSSW5.0km/h0uvi
06.04.2020 01:108.4°C8.4°C8.4°C33.0%1028.0hPa0.0mm3.2km/hSSW5.4km/h0uvi
06.04.2020 01:158.4°C8.4°C8.4°C33.0%1028.0hPa0.0mm2.9km/hSSW4.7km/h0uvi
06.04.2020 01:208.3°C8.4°C8.3°C33.0%1028.0hPa0.0mm2.2km/hSSW5.4km/h0uvi
06.04.2020 01:258.3°C8.3°C8.3°C33.4%1028.0hPa0.0mm5.4km/hSSW9.4km/h0uvi
06.04.2020 01:308.3°C8.4°C8.3°C34.0%1028.0hPa0.0mm6.4km/hSSW10.4km/h0uvi
06.04.2020 01:358.4°C8.4°C8.4°C34.0%1028.0hPa0.0mm6.8km/hSSW13.0km/h0uvi
06.04.2020 01:408.4°C8.4°C8.4°C34.0%1028.0hPa0.0mm7.0km/hSSW9.7km/h0uvi
06.04.2020 01:458.4°C8.4°C8.4°C34.0%1028.0hPa0.0mm6.5km/hSSW12.2km/h0uvi
06.04.2020 01:508.4°C8.4°C8.3°C34.4%1028.0hPa0.0mm6.3km/hSSW11.5km/h0uvi
06.04.2020 01:558.3°C8.3°C8.3°C35.0%1028.0hPa0.0mm5.9km/hSSW9.0km/h0uvi
06.04.2020 02:008.3°C8.3°C8.3°C35.0%1028.0hPa0.0mm5.9km/hSSW10.4km/h0uvi
06.04.2020 02:058.4°C8.5°C8.3°C35.0%1028.0hPa0.0mm5.3km/hSSW9.0km/h0uvi
06.04.2020 02:108.4°C8.4°C8.4°C35.0%1028.0hPa0.0mm5.4km/hSSW10.1km/h0uvi
06.04.2020 02:158.3°C8.4°C8.3°C35.0%1028.0hPa0.0mm2.3km/hENE4.3km/h0uvi
06.04.2020 02:208.1°C8.2°C8.0°C35.0%1028.0hPa0.0mm0.3km/hENE3.6km/h0uvi
06.04.2020 02:258.1°C8.1°C8.1°C35.0%1028.0hPa0.0mm3.6km/hSSW7.6km/h0uvi
06.04.2020 02:308.1°C8.1°C8.1°C35.0%1028.0hPa0.0mm0.5km/hSSW4.3km/h0uvi
06.04.2020 02:358.0°C8.0°C7.9°C35.2%1028.0hPa0.0mm1.3km/hSE5.4km/h0uvi
06.04.2020 02:407.9°C7.9°C7.8°C36.0%1028.0hPa0.0mm3.6km/hSE7.2km/h0uvi
06.04.2020 02:457.8°C7.8°C7.8°C36.6%1028.0hPa0.0mm3.4km/hSSE9.0km/h0uvi
06.04.2020 02:507.8°C7.9°C7.8°C37.0%1028.0hPa0.0mm5.3km/hSSE11.9km/h0uvi
06.04.2020 02:557.9°C8.0°C7.9°C37.3%1028.0hPa0.0mm6.0km/hSSW9.4km/h0uvi
06.04.2020 03:007.9°C7.9°C7.9°C37.0%1028.0hPa0.0mm3.2km/hSSE6.5km/h0uvi
06.04.2020 03:057.8°C7.8°C7.7°C37.0%1028.0hPa0.0mm0.6km/hSSE3.6km/h0uvi
06.04.2020 03:107.7°C7.7°C7.6°C37.0%1028.0hPa0.0mm2.1km/hSSE5.8km/h0uvi
06.04.2020 03:157.8°C7.8°C7.8°C37.0%1028.0hPa0.0mm3.8km/hSSW6.5km/h0uvi
06.04.2020 03:207.7°C7.8°C7.6°C37.4%1028.0hPa0.0mm1.9km/hSSW4.7km/h0uvi
06.04.2020 03:257.7°C7.7°C7.6°C37.8%1028.0hPa0.0mm2.9km/hSSW6.8km/h0uvi
06.04.2020 03:307.5°C7.5°C7.4°C38.5%1028.0hPa0.0mm2.9km/hWSW8.6km/h0uvi
06.04.2020 03:357.5°C7.5°C7.4°C38.0%1029.0hPa0.0mm1.8km/hSSW3.6km/h0uvi
06.04.2020 03:407.3°C7.4°C7.3°C38.0%1029.0hPa0.0mm0.2km/hSSW5.4km/h0uvi
06.04.2020 03:457.3°C7.3°C7.2°C38.5%1029.0hPa0.0mm2.7km/hSSW6.1km/h0uvi
06.04.2020 03:507.0°C7.1°C7.0°C40.8%1028.3hPa0.0mm5.1km/hSSW7.9km/h0uvi
06.04.2020 03:557.2°C7.2°C7.1°C41.0%1028.0hPa0.0mm4.1km/hSSW6.8km/h0uvi
06.04.2020 04:007.0°C7.1°C7.0°C41.0%1028.0hPa0.0mm0.8km/hNE3.2km/h0uvi
06.04.2020 04:056.9°C6.9°C6.8°C41.8%1028.0hPa0.0mm3.2km/hSSW7.9km/h0uvi
06.04.2020 04:107.0°C7.1°C7.0°C41.0%1028.0hPa0.0mm2.8km/hS5.0km/h0uvi
06.04.2020 04:157.0°C7.0°C7.0°C41.0%1028.0hPa0.0mm2.8km/hSSE4.3km/h0uvi
06.04.2020 04:206.9°C7.0°C6.8°C41.7%1028.9hPa0.0mm0.6km/hENE2.5km/h0uvi
06.04.2020 04:256.7°C6.7°C6.6°C42.0%1029.0hPa0.0mm0.4km/hENE3.2km/h0uvi
06.04.2020 04:306.6°C6.6°C6.5°C42.0%1029.0hPa0.0mm1.3km/hSSE3.2km/h0uvi
06.04.2020 04:356.4°C6.5°C6.3°C42.0%1029.0hPa0.0mm1.6km/hNW5.4km/h0uvi
06.04.2020 04:406.1°C6.2°C6.0°C42.0%1029.0hPa0.0mm0.2km/hWSW1.8km/h0uvi
06.04.2020 04:455.8°C5.9°C5.7°C42.0%1029.0hPa0.0mm0.2km/hWSW1.4km/h0uvi
06.04.2020 04:505.5°C5.6°C5.4°C42.0%1029.0hPa0.0mm0.5km/hWSW3.2km/h0uvi
06.04.2020 04:555.3°C5.4°C5.3°C42.8%1029.0hPa0.0mm0.7km/hWSW1.8km/h0uvi
06.04.2020 05:005.2°C5.2°C5.1°C43.0%1029.0hPa0.0mm0.0km/hWSW0.0km/h0uvi
06.04.2020 05:055.0°C5.1°C5.0°C43.8%1030.0hPa0.0mm0.7km/hWSW2.5km/h0uvi
06.04.2020 05:105.0°C5.0°C4.9°C44.0%1030.0hPa0.0mm0.3km/hWSW2.2km/h0uvi
06.04.2020 05:154.8°C4.9°C4.7°C44.8%1030.0hPa0.0mm0.5km/hW3.2km/h0uvi
06.04.2020 05:204.6°C4.6°C4.5°C45.8%1030.0hPa0.0mm1.5km/hSSW4.3km/h0uvi
06.04.2020 05:254.3°C4.4°C4.3°C49.2%1030.0hPa0.0mm2.1km/hSSW4.3km/h0uvi
06.04.2020 05:304.2°C4.2°C4.2°C49.5%1030.0hPa0.0mm0.3km/hW1.4km/h0uvi
06.04.2020 05:354.1°C4.1°C4.1°C48.5%1030.0hPa0.0mm0.3km/hS3.2km/h0uvi
06.04.2020 05:404.1°C4.1°C4.1°C49.8%1030.0hPa0.0mm2.2km/hWSW4.3km/h0uvi
06.04.2020 05:454.0°C4.1°C4.0°C50.5%1030.0hPa0.0mm1.0km/hNW2.5km/h0uvi
06.04.2020 05:503.9°C4.0°C3.8°C51.3%1029.0hPa0.0mm0.5km/hNW3.2km/h0uvi
06.04.2020 05:553.7°C3.7°C3.7°C52.0%1029.0hPa0.0mm1.9km/hSSW3.6km/h0uvi
06.04.2020 06:003.6°C3.6°C3.5°C55.0%1029.0hPa0.0mm2.7km/hSSW4.3km/h0uvi
06.04.2020 06:053.4°C3.4°C3.4°C54.8%1030.0hPa0.0mm0.8km/hWSW2.5km/h0uvi
06.04.2020 06:103.4°C3.5°C3.4°C54.5%1030.0hPa0.0mm2.1km/hWSW5.0km/h0uvi
06.04.2020 06:153.5°C3.5°C3.5°C56.0%1030.0hPa0.0mm3.2km/hSSW4.7km/h0uvi
06.04.2020 06:203.5°C3.5°C3.5°C56.7%1030.0hPa0.0mm2.9km/hSSW4.7km/h0uvi
06.04.2020 06:253.6°C3.6°C3.6°C56.0%1030.0hPa0.0mm1.7km/hWSW4.3km/h0uvi
06.04.2020 06:303.7°C3.7°C3.6°C57.0%1030.0hPa0.0mm2.3km/hSSW4.3km/h0uvi
06.04.2020 06:353.7°C3.7°C3.7°C56.0%1030.0hPa0.0mm2.0km/hNW4.0km/h0uvi
06.04.2020 06:403.6°C3.7°C3.6°C55.8%1030.0hPa0.0mm1.7km/hNW4.3km/h0uvi
06.04.2020 06:453.5°C3.5°C3.4°C55.0%1030.0hPa0.0mm1.5km/hWSW3.6km/h0uvi
06.04.2020 06:503.4°C3.4°C3.3°C55.0%1030.0hPa0.0mm1.2km/hWSW3.2km/h0uvi
06.04.2020 06:553.3°C3.3°C3.3°C55.8%1030.0hPa0.0mm3.5km/hWSW5.4km/h0uvi
06.04.2020 07:003.4°C3.4°C3.3°C56.8%1030.0hPa0.0mm2.9km/hWSW4.7km/h0uvi
06.04.2020 07:053.5°C3.5°C3.5°C57.0%1030.0hPa0.0mm2.4km/hSSW3.6km/h0uvi
06.04.2020 07:103.6°C3.6°C3.6°C56.8%1030.0hPa0.0mm1.3km/hWSW4.0km/h0uvi
06.04.2020 07:153.7°C3.8°C3.6°C56.0%1030.0hPa0.0mm1.9km/hWSW4.0km/h0uvi
06.04.2020 07:203.8°C3.8°C3.8°C56.0%1030.0hPa0.0mm1.2km/hWSW3.2km/h0uvi
06.04.2020 07:253.8°C3.8°C3.7°C55.8%1030.0hPa0.0mm2.7km/hWSW5.4km/h0uvi
06.04.2020 07:303.5°C3.6°C3.4°C55.0%1030.0hPa0.0mm1.4km/hWSW4.0km/h0uvi
06.04.2020 07:353.4°C3.4°C3.4°C55.0%1030.0hPa0.0mm1.6km/hWSW3.6km/h0uvi
06.04.2020 07:403.5°C3.6°C3.4°C57.0%1030.0hPa0.0mm1.7km/hNW4.3km/h0uvi
06.04.2020 07:453.6°C3.6°C3.6°C58.0%1030.0hPa0.0mm2.6km/hNW3.2km/h0uvi
06.04.2020 07:503.7°C3.7°C3.7°C58.0%1030.0hPa0.0mm2.2km/hNW4.3km/h0uvi